Terminal Aerodrome Forecast
Issued by NWS

Home | Current Version | Previous Version | Text Only | Print | Product List | Glossary On
Versions: 1 2 3 4 5 6 7 8 9 10 11 12
000
FTUS45 KPIH 180500
TAFSUN
TAF
KSUN 180520Z 1806/1906 30008KT P6SM SCT070 BKN120
     FM180800 31012KT P6SM -SHRA SCT030 OVC060
     FM181500 15012KT P6SM VCSH SCT040 BKN070
     FM182100 23012KT P6SM SCT070
     FM190200 30010KT P6SM SKC
      AMD LTD TO CLD VIS AND WIND TIL 181300=

USA.gov is the U.S. government's official web portal to all federal, state and local government web resources and services.